createdAt,value
2024-05-09T00:01:55.558Z,94490.09
2024-05-09T00:04:25.313Z,94483.63
2024-05-09T00:06:55.177Z,94488.06
2024-05-09T00:09:27.480Z,94471.53
2024-05-09T00:11:57.301Z,94476.78
2024-05-09T00:14:27.233Z,94484.66
2024-05-09T00:16:57.035Z,94473.75
2024-05-09T00:19:27.662Z,94472.34
2024-05-09T00:21:57.418Z,94465.91
2024-05-09T00:24:29.703Z,94450.59
2024-05-09T00:27:01.012Z,94455.41
2024-05-09T00:29:30.814Z,94463.28
2024-05-09T00:32:00.717Z,94449.47
2024-05-09T00:34:30.533Z,94462.53
2024-05-09T00:37:00.285Z,94468.41
2024-05-09T00:39:32.693Z,94477.44
2024-05-09T00:42:02.370Z,94480.47
2024-05-09T00:44:32.108Z,94484.91
2024-05-09T00:47:02.665Z,94476.66
2024-05-09T00:49:32.855Z,94478.44
2024-05-09T00:52:02.665Z,94480.84
2024-05-09T00:54:35.851Z,94488.31
2024-05-09T00:57:06.419Z,94495.94
2024-05-09T00:59:36.657Z,94486.28
2024-05-09T01:02:07.056Z,94482.47
2024-05-09T01:04:36.901Z,94484.28
2024-05-09T01:07:07.128Z,94476.44
2024-05-09T01:09:39.537Z,94476.84
2024-05-09T01:12:10.109Z,94480.47
2024-05-09T01:14:40.070Z,94483.09
2024-05-09T01:17:09.976Z,94463.97
2024-05-09T01:19:39.830Z,94484.09
2024-05-09T01:22:10.231Z,94483.28
2024-05-09T01:24:42.540Z,94482.94
2024-05-09T01:27:12.236Z,94481.28
2024-05-09T01:29:41.920Z,94480.28
2024-05-09T01:32:11.650Z,94490.16
2024-05-09T01:34:41.417Z,94483.75
2024-05-09T01:37:11.206Z,94484.53
2024-05-09T01:39:43.555Z,94478.09
2024-05-09T01:42:13.224Z,94475.66
2024-05-09T01:44:43.573Z,94475.88
2024-05-09T01:47:13.400Z,94477.09
2024-05-09T01:49:43.875Z,94478.31
2024-05-09T01:52:13.659Z,94482.53
2024-05-09T01:54:46.160Z,94471.50
2024-05-09T01:57:15.840Z,94480.97
2024-05-09T01:59:45.508Z,94481.38
2024-05-09T02:02:15.550Z,94480.16
2024-05-09T02:04:48.704Z,94485.19
2024-05-09T02:07:18.729Z,94485.97
2024-05-09T02:09:51.108Z,94489.63
2024-05-09T02:12:20.979Z,94487.81
2024-05-09T02:14:48.130Z,94489.00
2024-05-09T02:17:17.951Z,94492.84
2024-05-09T02:19:47.724Z,94487.63
2024-05-09T02:22:17.447Z,94499.28
2024-05-09T02:24:47.151Z,94493.06
2024-05-09T02:27:19.494Z,94493.47
2024-05-09T02:29:49.231Z,94503.13
2024-05-09T02:32:16.442Z,94497.88
2024-05-09T02:34:46.245Z,94493.47
2024-05-09T02:37:16.089Z,94497.91
2024-05-09T02:39:43.148Z,94490.84
2024-05-09T02:42:12.839Z,94487.63
2024-05-09T02:44:42.538Z,94492.06
2024-05-09T02:47:12.396Z,94492.25
2024-05-09T02:49:39.591Z,94486.03
2024-05-09T02:52:09.572Z,94485.03
2024-05-09T02:54:36.632Z,94482.41
2024-05-09T02:57:06.666Z,94480.97
2024-05-09T02:59:33.803Z,94476.78
2024-05-09T03:02:06.305Z,94476.56
2024-05-09T03:04:33.612Z,94486.63
2024-05-09T03:07:03.387Z,94479.38
2024-05-09T03:09:30.526Z,94481.41
2024-05-09T03:12:00.263Z,94483.00
2024-05-09T03:14:27.470Z,94483.00
2024-05-09T03:16:57.356Z,94484.81
2024-05-09T03:19:27.193Z,94473.34
2024-05-09T03:21:56.943Z,94474.75
2024-05-09T03:24:24.033Z,94468.94
2024-05-09T03:26:53.788Z,94472.94
2024-05-09T03:29:20.867Z,94483.41
2024-05-09T03:31:50.719Z,94476.78
2024-05-09T03:34:17.858Z,94479.97
2024-05-09T03:36:50.153Z,94483.00
2024-05-09T03:39:20.115Z,94479.38
2024-05-09T03:41:49.799Z,94472.34
2024-05-09T03:44:35.438Z,94473.34
2024-05-09T03:47:05.163Z,94463.09
2024-05-09T03:49:32.446Z,94471.31
2024-05-09T03:52:05.457Z,94463.69
2024-05-09T03:54:34.821Z,94468.13
2024-05-09T03:57:04.673Z,94458.44
2024-05-09T03:59:31.839Z,94470.94
2024-05-09T04:02:01.655Z,94461.28
2024-05-09T04:04:28.860Z,94470.13
2024-05-09T04:06:58.578Z,94453.22
2024-05-09T04:09:28.783Z,94463.88
2024-05-09T04:11:58.710Z,94455.25
2024-05-09T04:14:26.019Z,94463.69
2024-05-09T04:16:55.880Z,94466.50
2024-05-09T04:19:23.126Z,94445.56
2024-05-09T04:21:52.873Z,94430.28
2024-05-09T04:24:19.976Z,94431.88
2024-05-09T04:26:52.360Z,94461.25
2024-05-09T04:29:19.563Z,94459.03
2024-05-09T04:31:49.393Z,94451.78
2024-05-09T04:34:16.705Z,94462.66
2024-05-09T04:36:46.484Z,94461.03
2024-05-09T04:39:13.549Z,94461.63
2024-05-09T04:41:43.273Z,94471.31
2024-05-09T04:44:13.031Z,94468.47
2024-05-09T04:46:42.864Z,94485.16
2024-05-09T04:49:10.068Z,94480.53
2024-05-09T04:51:39.785Z,94485.16
2024-05-09T04:54:10.597Z,94485.53
2024-05-09T04:56:40.524Z,94488.34
2024-05-09T04:59:07.642Z,94480.69
2024-05-09T05:01:40.100Z,94475.25
2024-05-09T05:04:07.384Z,94494.75
2024-05-09T05:06:37.115Z,94491.91
2024-05-09T05:09:04.259Z,94497.78
2024-05-09T05:11:34.031Z,94504.22
2024-05-09T05:14:01.283Z,94495.75
2024-05-09T05:16:31.073Z,94499.78
2024-05-09T05:19:00.915Z,94513.06
2024-05-09T05:21:30.746Z,94518.91
2024-05-09T05:23:57.913Z,94524.34
2024-05-09T05:26:29.207Z,94524.16
2024-05-09T05:28:56.345Z,94524.94
2024-05-09T05:31:26.221Z,94530.81
2024-05-09T05:33:53.516Z,94530.81
2024-05-09T05:36:26.187Z,94529.78
2024-05-09T05:38:53.260Z,94520.13
2024-05-09T05:41:23.055Z,94531.81
2024-05-09T05:43:50.225Z,94528.19
2024-05-09T05:46:20.002Z,94532.03
2024-05-09T05:48:47.146Z,94532.56
2024-05-09T05:51:17.278Z,94527.53
2024-05-09T05:53:47.182Z,94536.81
2024-05-09T05:56:17.104Z,94516.25
2024-05-09T05:58:44.226Z,94531.56
2024-05-09T06:01:13.956Z,94535.59
2024-05-09T06:03:41.236Z,94526.97
2024-05-09T06:06:11.135Z,94540.44
2024-05-09T06:08:38.626Z,94533.97
2024-05-09T06:11:11.162Z,94533.22
2024-05-09T06:13:42.710Z,94538.84
2024-05-09T06:16:12.817Z,94532.63
2024-05-09T06:18:40.208Z,94531.00
2024-05-09T06:21:10.152Z,94535.25
2024-05-09T06:23:45.217Z,94536.47
2024-05-09T06:26:17.980Z,94535.25
2024-05-09T06:28:45.171Z,94507.06
2024-05-09T06:31:15.139Z,94528.56
2024-05-09T06:33:42.481Z,94536.03
2024-05-09T06:36:12.297Z,94528.94
2024-05-09T06:38:39.552Z,94530.69
2024-05-09T06:41:09.414Z,94531.25
2024-05-09T06:43:39.167Z,94526.84
2024-05-09T06:46:08.875Z,94529.16
2024-05-09T06:48:36.077Z,94533.44
2024-05-09T06:51:06.180Z,94533.44
2024-05-09T06:53:33.476Z,94532.66
2024-05-09T06:56:03.891Z,94534.81
2024-05-09T06:58:31.001Z,94531.44
2024-05-09T07:01:04.058Z,94528.81
2024-05-09T07:03:31.915Z,94527.59
2024-05-09T07:06:01.928Z,94529.44
2024-05-09T07:08:29.299Z,94539.31
2024-05-09T07:10:59.087Z,94538.25
2024-05-09T07:13:26.279Z,94536.69
2024-05-09T07:15:55.990Z,94535.63
2024-05-09T07:18:25.949Z,94544.28
2024-05-09T07:20:55.817Z,94538.03
2024-05-09T07:23:23.088Z,94547.53
2024-05-09T07:25:52.915Z,94545.72
2024-05-09T07:28:21.426Z,94541.06
2024-05-09T07:30:51.168Z,94550.31
2024-05-09T07:33:20.045Z,94550.53
2024-05-09T07:35:53.853Z,94545.28
2024-05-09T07:38:21.081Z,94555.34
2024-05-09T07:40:51.294Z,94549.50
2024-05-09T07:43:18.445Z,94549.91
2024-05-09T07:45:53.495Z,94551.00
2024-05-09T07:53:39.934Z,94550.94
2024-05-09T07:56:14.562Z,94556.00
2024-05-09T07:58:43.732Z,94553.19
2024-05-09T08:01:13.586Z,94547.16
2024-05-09T08:03:41.052Z,94561.88
2024-05-09T08:06:13.572Z,94565.53
2024-05-09T08:08:44.037Z,94568.97
2024-05-09T08:11:13.750Z,94564.75
2024-05-09T08:13:40.906Z,94567.38
2024-05-09T08:16:11.848Z,94570.38
2024-05-09T08:18:39.254Z,94582.66
2024-05-09T08:21:09.421Z,94556.28
2024-05-09T08:23:39.139Z,94582.88
2024-05-09T08:26:08.864Z,94581.88
2024-05-09T08:28:35.911Z,94582.25
2024-05-09T08:31:07.182Z,94586.47
2024-05-09T08:33:34.827Z,94591.88
2024-05-09T08:36:04.737Z,94588.06
2024-05-09T08:38:31.872Z,94579.22
2024-05-09T08:41:06.674Z,94581.66
2024-05-09T08:43:33.799Z,94589.72
2024-05-09T08:46:07.442Z,94572.19
2024-05-09T08:48:36.592Z,94573.00
2024-05-09T08:51:07.299Z,94575.22
2024-05-09T08:53:34.564Z,94570.78
2024-05-09T08:56:09.507Z,94567.19
2024-05-09T08:58:37.068Z,94579.84
2024-05-09T09:01:07.545Z,94577.63
2024-05-09T09:03:36.930Z,94576.84
2024-05-09T09:06:09.900Z,94579.44
2024-05-09T09:08:39.438Z,94582.44
2024-05-09T09:11:11.850Z,94574.22
2024-05-09T09:13:38.967Z,94582.06
2024-05-09T09:16:09.438Z,94590.72
2024-05-09T09:18:36.811Z,94586.31
2024-05-09T09:21:07.054Z,94587.31
2024-05-09T09:23:34.151Z,94585.28
2024-05-09T09:26:03.841Z,94581.69
2024-05-09T09:28:37.116Z,94585.72
2024-05-09T09:31:07.131Z,94579.66
2024-05-09T09:33:36.296Z,94582.28
2024-05-09T09:36:08.318Z,94576.03
2024-05-09T09:38:37.573Z,94581.47
2024-05-09T09:41:10.918Z,94578.63
2024-05-09T09:43:42.260Z,94584.50
2024-05-09T09:46:13.091Z,94573.56
2024-05-09T09:48:40.874Z,94574.56
2024-05-09T09:51:11.965Z,94572.16
2024-05-09T09:53:40.080Z,94576.41
2024-05-09T09:56:12.819Z,94571.34
2024-05-09T09:58:43.911Z,94564.81
2024-05-09T10:01:14.001Z,94568.59
2024-05-09T10:03:42.145Z,94568.50
2024-05-09T10:06:13.999Z,94561.22
2024-05-09T10:08:49.525Z,94566.06
2024-05-09T10:11:23.129Z,94549.16
2024-05-09T10:13:55.051Z,94557.03
2024-05-09T10:16:24.987Z,94561.16
2024-05-09T10:18:52.310Z,94567.28
2024-05-09T10:21:23.035Z,94564.34
2024-05-09T10:23:59.879Z,94567.69
2024-05-09T10:26:35.633Z,94562.66
2024-05-09T10:29:14.220Z,94556.41
2024-05-09T10:31:44.899Z,94555.13
2024-05-09T10:34:17.571Z,94560.19
2024-05-09T10:36:47.491Z,94555.00
2024-05-09T10:39:15.361Z,94557.97
2024-05-09T10:41:45.224Z,94554.72
2024-05-09T10:44:16.098Z,94557.19
2024-05-09T10:46:46.090Z,94550.88
2024-05-09T10:49:14.584Z,94559.44
2024-05-09T10:51:44.885Z,94553.63
2024-05-09T10:54:12.053Z,94556.63
2024-05-09T10:56:42.184Z,94550.47
2024-05-09T10:59:09.302Z,94551.47
2024-05-09T11:01:43.270Z,94548.47
2024-05-09T11:04:10.780Z,94544.06
2024-05-09T11:06:41.486Z,94549.22
2024-05-09T11:09:08.822Z,94549.25
2024-05-09T11:11:38.746Z,94544.72
2024-05-09T11:14:12.329Z,94543.78
2024-05-09T11:16:44.707Z,94548.25
2024-05-09T11:19:13.897Z,94542.75
2024-05-09T11:21:43.874Z,94549.91
2024-05-09T11:24:11.515Z,94545.38
2024-05-09T11:26:41.734Z,94551.44
2024-05-09T11:29:08.878Z,94544.28
2024-05-09T11:31:50.693Z,94545.50
2024-05-09T11:34:20.439Z,94542.66
2024-05-09T11:36:47.750Z,94539.81
2024-05-09T11:39:17.527Z,94541.81
2024-05-09T11:41:44.610Z,94540.19
2024-05-09T11:44:14.319Z,94543.44
2024-05-09T11:46:41.689Z,94540.22
2024-05-09T11:49:14.415Z,94544.34
2024-05-09T11:51:41.703Z,94547.75
2024-05-09T11:54:11.513Z,94543.91
2024-05-09T11:56:38.590Z,94538.00
2024-05-09T11:59:08.400Z,94540.03
2024-05-09T12:01:35.627Z,94537.28
2024-05-09T12:04:05.685Z,94537.28
2024-05-09T12:06:35.812Z,94539.69
2024-05-09T12:09:05.696Z,94542.09
2024-05-09T12:11:32.870Z,94532.91
2024-05-09T12:14:02.738Z,94531.88
2024-05-09T12:16:30.076Z,94540.25
2024-05-09T12:19:00.113Z,94538.28
2024-05-09T12:21:27.388Z,94537.84
2024-05-09T12:23:59.847Z,94531.00
2024-05-09T12:26:27.763Z,94534.22
2024-05-09T12:28:57.486Z,94522.81
2024-05-09T12:31:24.764Z,94526.53
2024-05-09T12:33:54.827Z,94527.56
2024-05-09T12:36:22.051Z,94528.94
2024-05-09T12:38:52.717Z,94524.72
2024-05-09T12:41:22.684Z,94519.56
2024-05-09T12:43:52.418Z,94519.19
2024-05-09T12:46:20.581Z,94510.84
2024-05-09T12:48:50.513Z,94523.19
2024-05-09T12:51:17.670Z,94509.97
2024-05-09T12:53:47.399Z,94515.78
2024-05-09T12:56:14.550Z,94519.44
2024-05-09T12:58:46.904Z,94519.09
2024-05-09T13:01:14.022Z,94515.91
2024-05-09T13:03:43.953Z,94512.97
2024-05-09T13:06:11.298Z,94509.38
2024-05-09T13:08:41.090Z,94503.81
2024-05-09T13:11:08.431Z,94517.13
2024-05-09T13:13:38.216Z,94515.81
2024-05-09T13:16:08.329Z,94517.84
2024-05-09T13:18:38.414Z,94521.72
2024-05-09T13:21:05.952Z,94517.94
2024-05-09T13:23:36.992Z,94526.88
2024-05-09T13:26:04.729Z,94521.50
2024-05-09T13:28:35.536Z,94525.75
2024-05-09T13:31:02.683Z,94515.88
2024-05-09T13:33:35.993Z,94527.56
2024-05-09T13:36:03.379Z,94529.78
2024-05-09T13:38:33.141Z,94531.66
2024-05-09T13:41:00.276Z,94530.63
2024-05-09T13:43:30.117Z,94541.34
2024-05-09T13:45:57.656Z,94536.91
2024-05-09T13:48:27.686Z,94544.63
2024-05-09T13:50:57.557Z,94538.97
2024-05-09T13:53:27.806Z,94542.19
2024-05-09T13:55:54.941Z,94538.97
2024-05-09T13:58:24.825Z,94537.97
2024-05-09T14:00:52.308Z,94521.66
2024-05-09T14:03:22.377Z,94543.19
2024-05-09T14:05:51.195Z,94544.19
2024-05-09T14:08:25.136Z,94546.19
2024-05-09T14:10:53.688Z,94539.31
2024-05-09T14:13:23.789Z,94548.56
2024-05-09T14:15:51.165Z,94545.34
2024-05-09T14:18:21.276Z,94554.75
2024-05-09T14:20:48.453Z,94554.94
2024-05-09T14:23:20.685Z,94552.13
2024-05-09T14:25:53.059Z,94555.09
2024-05-09T14:28:23.248Z,94553.47
2024-05-09T14:30:50.998Z,94555.84
2024-05-09T14:33:25.567Z,94559.06
2024-05-09T14:35:52.866Z,94559.03
2024-05-09T14:38:22.721Z,94551.97
2024-05-09T14:40:52.650Z,94559.59
2024-05-09T14:43:22.644Z,94564.78
2024-05-09T14:45:49.997Z,94556.72
2024-05-09T14:48:20.210Z,94573.03
2024-05-09T14:50:48.075Z,94553.97
2024-05-09T14:53:17.802Z,94572.19
2024-05-09T14:55:45.322Z,94569.38
2024-05-09T14:58:18.424Z,94572.97
2024-05-09T15:00:50.294Z,94571.56
2024-05-09T15:03:22.429Z,94560.69
2024-05-09T15:05:50.583Z,94551.06
2024-05-09T15:08:21.227Z,94571.22
2024-05-09T15:10:50.259Z,94564.38
2024-05-09T15:13:23.408Z,94570.78
2024-05-09T15:15:50.669Z,94557.44
2024-05-09T15:18:20.800Z,94569.47
2024-05-09T15:20:48.591Z,94572.91
2024-05-09T15:23:18.483Z,94578.38
2024-05-09T15:25:45.569Z,94573.56
2024-05-09T15:28:15.527Z,94572.97
2024-05-09T15:30:46.789Z,94576.31
2024-05-09T15:33:17.153Z,94570.13
2024-05-09T15:35:46.625Z,94569.69
2024-05-09T15:38:18.368Z,94570.28
2024-05-09T15:40:46.009Z,94576.75
2024-05-09T15:43:21.733Z,94564.84
2024-05-09T15:45:51.795Z,94580.75
2024-05-09T15:48:21.993Z,94581.28
2024-05-09T15:50:49.172Z,94585.28
2024-05-09T15:53:19.056Z,94565.00
2024-05-09T15:55:46.237Z,94590.16
2024-05-09T15:58:17.176Z,94586.94
2024-05-09T16:00:48.800Z,94586.13
2024-05-09T16:03:23.440Z,94595.34
2024-05-09T16:05:51.511Z,94597.94
2024-05-09T16:08:21.416Z,94598.72
2024-05-09T16:10:48.841Z,94593.72
2024-05-09T16:13:19.828Z,94582.59
2024-05-09T16:15:47.559Z,94594.41
2024-05-09T16:18:32.522Z,94588.91
2024-05-09T16:21:02.272Z,94586.78
2024-05-09T16:23:32.297Z,94594.44
2024-05-09T16:26:37.771Z,94602.88
2024-05-09T16:29:20.948Z,94605.13
2024-05-09T16:31:48.263Z,94608.28
2024-05-09T16:34:18.223Z,94605.50
2024-05-09T16:37:00.288Z,94585.63
2024-05-09T16:39:37.490Z,94606.78
2024-05-09T16:42:05.209Z,94612.38
2024-05-09T16:44:35.675Z,94610.97
2024-05-09T16:47:02.952Z,94609.69
2024-05-09T16:49:33.034Z,94605.31
2024-05-09T16:52:02.931Z,94606.41
2024-05-09T16:54:32.717Z,94593.78
2024-05-09T16:56:59.952Z,94620.53
2024-05-09T16:59:29.963Z,94630.38
2024-05-09T17:01:57.220Z,94614.75
2024-05-09T17:04:27.139Z,94628.56
2024-05-09T17:06:54.477Z,94625.72
2024-05-09T17:09:26.909Z,94633.47
2024-05-09T17:11:54.159Z,94631.38
2024-05-09T17:14:23.878Z,94627.38
2024-05-09T17:16:53.889Z,94616.84
2024-05-09T17:19:23.735Z,94634.56
2024-05-09T17:21:50.943Z,94640.38
2024-05-09T17:24:20.641Z,94637.44
2024-05-09T17:26:52.881Z,94637.34
2024-05-09T17:29:22.927Z,94639.41
2024-05-09T17:31:50.097Z,94634.19
2024-05-09T17:34:20.233Z,94640.13
2024-05-09T17:36:47.559Z,94640.94
2024-05-09T17:39:17.367Z,94647.41
2024-05-09T17:41:44.541Z,94644.72
2024-05-09T17:44:17.079Z,94634.78
2024-05-09T17:46:44.214Z,94651.41
2024-05-09T17:49:16.029Z,94651.53
2024-05-09T17:51:53.476Z,94650.56
2024-05-09T17:54:23.296Z,94652.34
2024-05-09T17:56:51.778Z,94656.44
2024-05-09T17:59:24.162Z,94652.53
2024-05-09T18:01:51.339Z,94654.47
2024-05-09T18:04:23.786Z,94659.84
2024-05-09T18:06:51.041Z,94670.66
2024-05-09T18:09:21.167Z,94667.00
2024-05-09T18:11:48.444Z,94667.31
2024-05-09T18:14:18.740Z,94670.84
2024-05-09T18:16:48.545Z,94665.81
2024-05-09T18:19:18.502Z,94666.00
2024-05-09T18:21:45.738Z,94679.13
2024-05-09T18:24:23.220Z,94678.31
2024-05-09T18:26:50.675Z,94679.75
2024-05-09T18:29:22.283Z,94684.25
2024-05-09T18:31:52.476Z,94686.19
2024-05-09T18:34:22.212Z,94687.81
2024-05-09T18:36:49.460Z,94687.53
2024-05-09T18:39:19.738Z,94690.94
2024-05-09T18:41:46.851Z,94689.03
2024-05-09T18:44:16.684Z,94700.47
2024-05-09T18:46:43.765Z,94704.22
2024-05-09T18:49:16.362Z,94697.59
2024-05-09T18:51:46.473Z,94703.22
2024-05-09T18:54:16.248Z,94700.00
2024-05-09T18:56:43.385Z,94705.81
2024-05-09T18:59:13.134Z,94708.53
2024-05-09T19:01:42.274Z,94689.88
2024-05-09T19:04:12.351Z,94712.44
2024-05-09T19:06:42.443Z,94716.00
2024-05-09T19:09:12.293Z,94723.03
2024-05-09T19:11:44.946Z,94726.88
2024-05-09T19:14:12.041Z,94726.09
2024-05-09T19:16:42.002Z,94720.22
2024-05-09T19:19:10.143Z,94727.88
2024-05-09T19:21:42.852Z,94728.03
2024-05-09T19:24:13.048Z,94715.72
2024-05-09T19:26:42.844Z,94736.50
2024-05-09T19:29:14.662Z,94740.56
2024-05-09T19:31:44.518Z,94738.94
2024-05-09T19:34:11.840Z,94734.69
2024-05-09T19:36:41.787Z,94740.25
2024-05-09T19:39:09.083Z,94739.81
2024-05-09T19:41:41.483Z,94743.09
2024-05-09T19:44:08.763Z,94742.56
2024-05-09T19:46:39.999Z,94738.69
2024-05-09T19:49:07.537Z,94747.19
2024-05-09T19:51:37.530Z,94743.09
2024-05-09T19:54:04.697Z,94740.13
2024-05-09T19:56:34.403Z,94734.94
2024-05-09T19:59:04.402Z,94738.09
2024-05-09T20:01:36.102Z,94737.94
2024-05-09T20:04:03.595Z,94745.84
2024-05-09T20:06:33.532Z,94742.28
2024-05-09T20:09:00.717Z,94743.44
2024-05-09T20:11:32.870Z,94735.06
2024-05-09T20:14:00.235Z,94744.19
2024-05-09T20:16:32.599Z,94746.63
2024-05-09T20:18:59.934Z,94744.19
2024-05-09T20:21:29.753Z,94748.06
2024-05-09T20:23:56.821Z,94750.03
2024-05-09T20:26:29.868Z,94747.03
2024-05-09T20:28:57.886Z,94752.69
2024-05-09T20:31:27.673Z,94753.03
2024-05-09T20:33:57.497Z,94750.50
2024-05-09T20:36:27.272Z,94754.09
2024-05-09T20:38:54.447Z,94753.81
2024-05-09T20:41:24.141Z,94749.91
2024-05-09T20:43:51.239Z,94746.84
2024-05-09T20:46:21.048Z,94748.75
2024-05-09T20:48:48.466Z,94750.56
2024-05-09T20:51:21.023Z,94753.16
2024-05-09T20:53:48.126Z,94757.72
2024-05-09T20:56:17.867Z,94758.00
2024-05-09T20:58:45.045Z,94750.56
2024-05-09T21:01:14.775Z,94750.72
2024-05-09T21:03:42.029Z,94749.91
2024-05-09T21:06:12.143Z,94752.50
2024-05-09T21:08:42.323Z,94748.75
2024-05-09T21:11:12.043Z,94750.56
2024-05-09T21:13:39.168Z,94743.53
2024-05-09T21:16:10.119Z,94749.56
2024-05-09T21:18:38.241Z,94747.94
2024-05-09T21:21:08.681Z,94756.41
2024-05-09T21:23:36.692Z,94751.41
2024-05-09T21:26:09.660Z,94752.78
2024-05-09T21:28:36.711Z,94747.50
2024-05-09T21:31:06.596Z,94761.78
2024-05-09T21:33:34.172Z,94758.38
2024-05-09T21:36:03.996Z,94756.88
2024-05-09T21:38:33.802Z,94751.72
2024-05-09T21:41:00.908Z,94751.03
2024-05-09T21:43:33.475Z,94752.59
2024-05-09T21:46:00.737Z,94753.44
2024-05-09T21:48:30.561Z,94757.81
2024-05-09T21:50:57.704Z,94751.31
2024-05-09T21:53:27.433Z,94743.66
2024-05-09T21:55:54.495Z,94743.31
2024-05-09T21:58:24.274Z,94747.38
2024-05-09T22:00:54.186Z,94748.53
2024-05-09T22:03:24.108Z,94744.13
2024-05-09T22:05:51.297Z,94749.69
2024-05-09T22:08:21.035Z,94740.38
2024-05-09T22:10:48.142Z,94741.19
2024-05-09T22:13:20.404Z,94742.50
2024-05-09T22:15:47.713Z,94744.47
2024-05-09T22:18:20.176Z,94739.75
2024-05-09T22:20:47.400Z,94735.34
2024-05-09T22:23:18.180Z,94733.72
2024-05-09T22:25:45.389Z,94729.34
2024-05-09T22:28:17.200Z,94734.84
2024-05-09T22:30:47.188Z,94735.00
2024-05-09T22:33:20.191Z,94731.75
2024-05-09T22:35:48.158Z,94726.09
2024-05-09T22:38:18.088Z,94725.09
2024-05-09T22:40:48.664Z,94722.44
2024-05-09T22:43:23.860Z,94721.56
2024-05-09T22:45:52.383Z,94724.47
2024-05-09T22:48:25.577Z,94726.84
2024-05-09T22:50:53.879Z,94719.31
2024-05-09T22:53:24.795Z,94724.53
2024-05-09T22:55:52.167Z,94713.94
2024-05-09T22:58:22.441Z,94713.25
2024-05-09T23:00:49.874Z,94719.91
2024-05-09T23:03:21.771Z,94718.63
2024-05-09T23:05:52.045Z,94718.13
2024-05-09T23:08:21.773Z,94723.66
2024-05-09T23:10:49.203Z,94727.88
2024-05-09T23:13:19.258Z,94724.34
2024-05-09T23:15:49.350Z,94719.63
2024-05-09T23:18:16.616Z,94717.38
2024-05-09T23:20:46.399Z,94722.41
2024-05-09T23:23:16.169Z,94714.63
2024-05-09T23:25:46.211Z,94707.19
2024-05-09T23:28:13.406Z,94715.00
2024-05-09T23:30:43.369Z,94710.44
2024-05-09T23:33:12.215Z,94703.78
2024-05-09T23:35:44.908Z,94706.03
2024-05-09T23:38:12.327Z,94707.97
2024-05-09T23:40:44.730Z,94707.19
2024-05-09T23:43:12.789Z,94710.25
2024-05-09T23:45:43.155Z,94711.22
2024-05-09T23:48:10.899Z,94706.81
2024-05-09T23:50:41.406Z,94712.31
2024-05-09T23:53:09.922Z,94711.41
2024-05-09T23:55:40.666Z,94705.06
2024-05-09T23:58:11.404Z,94707.00
